sensor_id;sensor_type;location;lat;lon;timestamp;P1;durP1;ratioP1;P2;durP2;ratioP2
14139;SDS011;7150;53.514;9.988;2023-03-31T00:00:09;9.00;;;2.50;;
14139;SDS011;7150;53.514;9.988;2023-03-31T00:02:36;10.63;;;2.33;;
14139;SDS011;7150;53.514;9.988;2023-03-31T00:05:09;10.13;;;2.77;;
14139;SDS011;7150;53.514;9.988;2023-03-31T00:07:35;8.50;;;2.47;;
14139;SDS011;7150;53.514;9.988;2023-03-31T00:10:04;12.03;;;2.73;;
14139;SDS011;7150;53.514;9.988;2023-03-31T00:12:30;9.73;;;2.83;;
14139;SDS011;7150;53.514;9.988;2023-03-31T00:14:55;13.73;;;3.07;;
14139;SDS011;7150;53.514;9.988;2023-03-31T00:17:21;12.57;;;3.30;;
14139;SDS011;7150;53.514;9.988;2023-03-31T00:19:46;11.40;;;2.67;;
14139;SDS011;7150;53.514;9.988;2023-03-31T00:22:15;10.10;;;2.80;;
14139;SDS011;7150;53.514;9.988;2023-03-31T00:24:46;6.57;;;2.70;;
14139;SDS011;7150;53.514;9.988;2023-03-31T00:27:12;21.90;;;3.77;;
14139;SDS011;7150;53.514;9.988;2023-03-31T00:29:37;12.13;;;3.17;;
14139;SDS011;7150;53.514;9.988;2023-03-31T00:32:05;12.73;;;3.10;;
14139;SDS011;7150;53.514;9.988;2023-03-31T00:34:31;18.10;;;3.53;;
14139;SDS011;7150;53.514;9.988;2023-03-31T00:36:57;8.97;;;2.60;;
14139;SDS011;7150;53.514;9.988;2023-03-31T00:39:26;8.80;;;2.30;;
14139;SDS011;7150;53.514;9.988;2023-03-31T00:41:56;13.17;;;2.80;;
14139;SDS011;7150;53.514;9.988;2023-03-31T00:44:22;13.63;;;2.97;;
14139;SDS011;7150;53.514;9.988;2023-03-31T00:49:26;14.87;;;3.90;;
14139;SDS011;7150;53.514;9.988;2023-03-31T00:54:44;14.00;;;3.77;;
14139;SDS011;7150;53.514;9.988;2023-03-31T00:57:13;12.37;;;2.50;;
14139;SDS011;7150;53.514;9.988;2023-03-31T00:59:41;11.57;;;2.63;;
14139;SDS011;7150;53.514;9.988;2023-03-31T01:02:11;9.83;;;2.70;;
14139;SDS011;7150;53.514;9.988;2023-03-31T01:04:39;11.30;;;3.03;;
14139;SDS011;7150;53.514;9.988;2023-03-31T01:07:10;21.63;;;3.77;;
14139;SDS011;7150;53.514;9.988;2023-03-31T01:09:46;10.90;;;2.70;;
14139;SDS011;7150;53.514;9.988;2023-03-31T01:12:14;14.40;;;2.70;;
14139;SDS011;7150;53.514;9.988;2023-03-31T01:14:41;8.60;;;2.97;;
14139;SDS011;7150;53.514;9.988;2023-03-31T01:17:06;10.23;;;2.47;;
14139;SDS011;7150;53.514;9.988;2023-03-31T01:22:20;9.50;;;2.93;;
14139;SDS011;7150;53.514;9.988;2023-03-31T01:25:05;12.10;;;3.00;;
14139;SDS011;7150;53.514;9.988;2023-03-31T01:27:56;10.63;;;3.37;;
14139;SDS011;7150;53.514;9.988;2023-03-31T01:38:51;13.27;;;3.10;;
14139;SDS011;7150;53.514;9.988;2023-03-31T01:41:24;10.07;;;2.20;;
14139;SDS011;7150;53.514;9.988;2023-03-31T01:46:57;11.40;;;2.50;;
14139;SDS011;7150;53.514;9.988;2023-03-31T01:52:23;10.70;;;2.80;;
14139;SDS011;7150;53.514;9.988;2023-03-31T01:54:56;10.00;;;3.30;;
14139;SDS011;7150;53.514;9.988;2023-03-31T01:57:48;9.47;;;3.00;;
14139;SDS011;7150;53.514;9.988;2023-03-31T02:00:37;12.13;;;3.40;;
14139;SDS011;7150;53.514;9.988;2023-03-31T02:03:20;12.87;;;2.83;;
14139;SDS011;7150;53.514;9.988;2023-03-31T02:05:52;8.60;;;3.03;;
14139;SDS011;7150;53.514;9.988;2023-03-31T02:08:27;6.77;;;2.73;;
14139;SDS011;7150;53.514;9.988;2023-03-31T02:10:55;6.97;;;2.80;;
14139;SDS011;7150;53.514;9.988;2023-03-31T02:13:23;11.67;;;4.27;;
14139;SDS011;7150;53.514;9.988;2023-03-31T02:15:52;9.30;;;3.43;;
14139;SDS011;7150;53.514;9.988;2023-03-31T02:18:22;7.90;;;3.10;;
14139;SDS011;7150;53.514;9.988;2023-03-31T02:20:51;8.30;;;2.70;;
14139;SDS011;7150;53.514;9.988;2023-03-31T02:23:21;10.00;;;3.40;;
14139;SDS011;7150;53.514;9.988;2023-03-31T02:25:51;8.77;;;3.00;;
14139;SDS011;7150;53.514;9.988;2023-03-31T02:28:20;7.27;;;2.63;;
14139;SDS011;7150;53.514;9.988;2023-03-31T02:33:33;9.53;;;3.77;;
14139;SDS011;7150;53.514;9.988;2023-03-31T02:35:58;14.40;;;3.20;;
14139;SDS011;7150;53.514;9.988;2023-03-31T02:38:24;12.73;;;4.13;;
14139;SDS011;7150;53.514;9.988;2023-03-31T02:40:50;7.60;;;3.80;;
14139;SDS011;7150;53.514;9.988;2023-03-31T02:43:15;9.23;;;3.37;;
14139;SDS011;7150;53.514;9.988;2023-03-31T02:45:45;9.73;;;3.07;;
14139;SDS011;7150;53.514;9.988;2023-03-31T02:53:29;9.43;;;3.17;;
14139;SDS011;7150;53.514;9.988;2023-03-31T02:56:20;10.93;;;3.70;;
14139;SDS011;7150;53.514;9.988;2023-03-31T03:02:07;8.80;;;3.23;;
14139;SDS011;7150;53.514;9.988;2023-03-31T03:04:46;13.17;;;3.33;;
14139;SDS011;7150;53.514;9.988;2023-03-31T03:10:08;9.73;;;4.13;;
14139;SDS011;7150;53.514;9.988;2023-03-31T03:12:51;9.40;;;3.27;;
14139;SDS011;7150;53.514;9.988;2023-03-31T03:15:31;8.53;;;3.20;;
14139;SDS011;7150;53.514;9.988;2023-03-31T03:18:01;12.57;;;3.47;;
14139;SDS011;7150;53.514;9.988;2023-03-31T03:20:29;7.17;;;3.10;;
14139;SDS011;7150;53.514;9.988;2023-03-31T03:22:57;9.60;;;2.60;;
14139;SDS011;7150;53.514;9.988;2023-03-31T03:25:23;7.97;;;3.47;;
14139;SDS011;7150;53.514;9.988;2023-03-31T03:27:49;7.40;;;3.00;;
14139;SDS011;7150;53.514;9.988;2023-03-31T03:30:17;5.67;;;2.67;;
14139;SDS011;7150;53.514;9.988;2023-03-31T03:32:43;7.83;;;3.17;;
14139;SDS011;7150;53.514;9.988;2023-03-31T03:35:08;10.10;;;3.20;;
14139;SDS011;7150;53.514;9.988;2023-03-31T03:37:35;7.77;;;2.90;;
14139;SDS011;7150;53.514;9.988;2023-03-31T03:40:00;12.27;;;4.10;;
14139;SDS011;7150;53.514;9.988;2023-03-31T03:42:27;8.23;;;2.27;;
14139;SDS011;7150;53.514;9.988;2023-03-31T03:44:53;6.60;;;2.80;;
14139;SDS011;7150;53.514;9.988;2023-03-31T03:47:18;11.90;;;3.50;;
14139;SDS011;7150;53.514;9.988;2023-03-31T03:49:44;7.77;;;2.97;;
14139;SDS011;7150;53.514;9.988;2023-03-31T03:52:09;7.07;;;3.10;;
14139;SDS011;7150;53.514;9.988;2023-03-31T03:54:35;11.77;;;3.50;;
14139;SDS011;7150;53.514;9.988;2023-03-31T03:57:00;6.97;;;3.10;;
14139;SDS011;7150;53.514;9.988;2023-03-31T03:59:26;14.40;;;3.90;;
14139;SDS011;7150;53.514;9.988;2023-03-31T04:01:51;8.40;;;3.40;;
14139;SDS011;7150;53.514;9.988;2023-03-31T04:04:17;7.50;;;3.27;;
14139;SDS011;7150;53.514;9.988;2023-03-31T04:06:43;11.23;;;4.43;;
14139;SDS011;7150;53.514;9.988;2023-03-31T04:09:08;13.27;;;3.90;;
14139;SDS011;7150;53.514;9.988;2023-03-31T04:11:34;10.00;;;3.50;;
14139;SDS011;7150;53.514;9.988;2023-03-31T04:14:00;5.77;;;3.30;;
14139;SDS011;7150;53.514;9.988;2023-03-31T04:16:25;8.83;;;3.60;;
14139;SDS011;7150;53.514;9.988;2023-03-31T04:18:51;9.17;;;4.13;;
14139;SDS011;7150;53.514;9.988;2023-03-31T04:21:21;8.73;;;3.67;;
14139;SDS011;7150;53.514;9.988;2023-03-31T04:23:48;8.43;;;4.03;;
14139;SDS011;7150;53.514;9.988;2023-03-31T04:26:22;8.90;;;4.13;;
14139;SDS011;7150;53.514;9.988;2023-03-31T04:28:54;12.87;;;4.87;;
14139;SDS011;7150;53.514;9.988;2023-03-31T04:31:24;11.53;;;5.67;;
14139;SDS011;7150;53.514;9.988;2023-03-31T04:33:50;9.50;;;4.83;;
14139;SDS011;7150;53.514;9.988;2023-03-31T04:36:16;7.27;;;4.30;;
14139;SDS011;7150;53.514;9.988;2023-03-31T04:38:46;11.50;;;5.03;;
14139;SDS011;7150;53.514;9.988;2023-03-31T04:41:15;8.40;;;4.27;;
14139;SDS011;7150;53.514;9.988;2023-03-31T04:43:41;14.80;;;5.23;;
14139;SDS011;7150;53.514;9.988;2023-03-31T04:46:06;11.10;;;5.67;;
14139;SDS011;7150;53.514;9.988;2023-03-31T04:48:32;9.27;;;4.90;;
14139;SDS011;7150;53.514;9.988;2023-03-31T04:50:58;14.27;;;5.50;;
14139;SDS011;7150;53.514;9.988;2023-03-31T04:53:23;11.53;;;5.27;;
14139;SDS011;7150;53.514;9.988;2023-03-31T04:55:50;9.37;;;4.67;;
14139;SDS011;7150;53.514;9.988;2023-03-31T04:58:15;11.07;;;4.80;;
14139;SDS011;7150;53.514;9.988;2023-03-31T05:00:41;11.00;;;4.80;;
14139;SDS011;7150;53.514;9.988;2023-03-31T05:03:07;13.40;;;5.87;;
14139;SDS011;7150;53.514;9.988;2023-03-31T05:05:33;26.43;;;6.47;;
14139;SDS011;7150;53.514;9.988;2023-03-31T05:07:59;12.00;;;4.93;;
14139;SDS011;7150;53.514;9.988;2023-03-31T05:10:25;13.57;;;5.57;;
14139;SDS011;7150;53.514;9.988;2023-03-31T05:12:50;7.73;;;4.40;;
14139;SDS011;7150;53.514;9.988;2023-03-31T05:15:16;12.20;;;5.23;;
14139;SDS011;7150;53.514;9.988;2023-03-31T05:17:41;8.37;;;4.43;;
14139;SDS011;7150;53.514;9.988;2023-03-31T05:20:07;10.73;;;4.87;;
14139;SDS011;7150;53.514;9.988;2023-03-31T05:22:34;12.73;;;4.57;;
14139;SDS011;7150;53.514;9.988;2023-03-31T05:25:01;10.37;;;4.20;;
14139;SDS011;7150;53.514;9.988;2023-03-31T05:27:27;9.10;;;4.43;;
14139;SDS011;7150;53.514;9.988;2023-03-31T05:29:52;11.43;;;4.87;;
14139;SDS011;7150;53.514;9.988;2023-03-31T05:32:18;14.90;;;4.83;;
14139;SDS011;7150;53.514;9.988;2023-03-31T05:34:43;12.73;;;5.20;;
14139;SDS011;7150;53.514;9.988;2023-03-31T05:37:08;10.73;;;4.30;;
14139;SDS011;7150;53.514;9.988;2023-03-31T05:39:34;17.10;;;4.47;;
14139;SDS011;7150;53.514;9.988;2023-03-31T05:42:00;11.57;;;4.37;;
14139;SDS011;7150;53.514;9.988;2023-03-31T05:44:25;13.03;;;4.00;;
14139;SDS011;7150;53.514;9.988;2023-03-31T05:46:53;11.33;;;4.30;;
14139;SDS011;7150;53.514;9.988;2023-03-31T05:49:19;15.27;;;5.27;;
14139;SDS011;7150;53.514;9.988;2023-03-31T05:51:45;11.77;;;4.73;;
14139;SDS011;7150;53.514;9.988;2023-03-31T05:54:10;10.27;;;3.67;;
14139;SDS011;7150;53.514;9.988;2023-03-31T05:56:36;11.73;;;4.23;;
14139;SDS011;7150;53.514;9.988;2023-03-31T05:59:01;10.73;;;4.00;;
14139;SDS011;7150;53.514;9.988;2023-03-31T06:01:27;10.40;;;4.27;;
14139;SDS011;7150;53.514;9.988;2023-03-31T06:03:53;7.50;;;3.80;;
14139;SDS011;7150;53.514;9.988;2023-03-31T06:06:19;14.43;;;4.97;;
14139;SDS011;7150;53.514;9.988;2023-03-31T06:08:45;7.93;;;3.40;;
14139;SDS011;7150;53.514;9.988;2023-03-31T06:11:15;13.27;;;4.13;;
14139;SDS011;7150;53.514;9.988;2023-03-31T06:13:43;9.13;;;4.53;;
14139;SDS011;7150;53.514;9.988;2023-03-31T06:16:10;11.37;;;4.10;;
14139;SDS011;7150;53.514;9.988;2023-03-31T06:18:37;10.07;;;3.50;;
14139;SDS011;7150;53.514;9.988;2023-03-31T06:21:03;7.37;;;4.00;;
14139;SDS011;7150;53.514;9.988;2023-03-31T06:23:29;7.40;;;4.00;;
14139;SDS011;7150;53.514;9.988;2023-03-31T06:25:59;7.20;;;4.03;;
14139;SDS011;7150;53.514;9.988;2023-03-31T06:28:26;10.70;;;3.50;;
14139;SDS011;7150;53.514;9.988;2023-03-31T06:30:58;8.07;;;3.90;;
14139;SDS011;7150;53.514;9.988;2023-03-31T06:33:31;10.80;;;3.73;;
14139;SDS011;7150;53.514;9.988;2023-03-31T06:35:57;13.07;;;4.80;;
14139;SDS011;7150;53.514;9.988;2023-03-31T06:38:25;9.70;;;3.43;;
14139;SDS011;7150;53.514;9.988;2023-03-31T06:40:51;11.27;;;3.93;;
14139;SDS011;7150;53.514;9.988;2023-03-31T06:43:17;8.97;;;3.27;;
14139;SDS011;7150;53.514;9.988;2023-03-31T06:45:42;12.03;;;4.37;;
14139;SDS011;7150;53.514;9.988;2023-03-31T06:48:08;9.43;;;3.93;;
14139;SDS011;7150;53.514;9.988;2023-03-31T06:50:36;15.57;;;5.13;;
14139;SDS011;7150;53.514;9.988;2023-03-31T06:53:02;12.57;;;4.63;;
14139;SDS011;7150;53.514;9.988;2023-03-31T06:55:28;10.70;;;4.03;;
14139;SDS011;7150;53.514;9.988;2023-03-31T06:57:53;10.93;;;4.43;;
14139;SDS011;7150;53.514;9.988;2023-03-31T07:00:19;11.00;;;3.97;;
14139;SDS011;7150;53.514;9.988;2023-03-31T07:02:44;9.63;;;3.53;;
14139;SDS011;7150;53.514;9.988;2023-03-31T07:05:10;8.23;;;4.57;;
14139;SDS011;7150;53.514;9.988;2023-03-31T07:07:35;11.40;;;4.50;;
14139;SDS011;7150;53.514;9.988;2023-03-31T07:10:01;8.63;;;3.90;;
14139;SDS011;7150;53.514;9.988;2023-03-31T07:12:26;8.70;;;4.20;;
14139;SDS011;7150;53.514;9.988;2023-03-31T07:14:52;6.90;;;4.00;;
14139;SDS011;7150;53.514;9.988;2023-03-31T07:17:18;9.33;;;3.77;;
14139;SDS011;7150;53.514;9.988;2023-03-31T07:19:43;8.17;;;3.60;;
14139;SDS011;7150;53.514;9.988;2023-03-31T07:22:12;9.67;;;4.20;;
14139;SDS011;7150;53.514;9.988;2023-03-31T07:24:38;11.20;;;4.00;;
14139;SDS011;7150;53.514;9.988;2023-03-31T07:27:04;7.60;;;3.47;;
14139;SDS011;7150;53.514;9.988;2023-03-31T07:29:30;13.83;;;4.90;;
14139;SDS011;7150;53.514;9.988;2023-03-31T07:31:55;7.53;;;3.50;;
14139;SDS011;7150;53.514;9.988;2023-03-31T07:34:21;7.27;;;3.23;;
14139;SDS011;7150;53.514;9.988;2023-03-31T07:36:46;10.13;;;2.83;;
14139;SDS011;7150;53.514;9.988;2023-03-31T07:39:12;8.70;;;3.37;;
14139;SDS011;7150;53.514;9.988;2023-03-31T07:41:37;7.77;;;3.03;;
14139;SDS011;7150;53.514;9.988;2023-03-31T07:44:04;6.53;;;2.97;;
14139;SDS011;7150;53.514;9.988;2023-03-31T07:46:30;7.33;;;3.50;;
14139;SDS011;7150;53.514;9.988;2023-03-31T07:48:55;9.40;;;3.40;;
14139;SDS011;7150;53.514;9.988;2023-03-31T07:51:23;10.73;;;3.77;;
14139;SDS011;7150;53.514;9.988;2023-03-31T07:53:50;5.30;;;3.13;;
14139;SDS011;7150;53.514;9.988;2023-03-31T07:56:17;9.83;;;3.77;;
14139;SDS011;7150;53.514;9.988;2023-03-31T07:58:45;7.07;;;2.97;;
14139;SDS011;7150;53.514;9.988;2023-03-31T08:01:15;10.20;;;3.30;;
14139;SDS011;7150;53.514;9.988;2023-03-31T08:03:41;8.97;;;3.37;;
14139;SDS011;7150;53.514;9.988;2023-03-31T08:06:07;8.07;;;2.50;;
14139;SDS011;7150;53.514;9.988;2023-03-31T08:08:33;4.57;;;2.83;;
14139;SDS011;7150;53.514;9.988;2023-03-31T08:10:59;8.27;;;3.03;;
14139;SDS011;7150;53.514;9.988;2023-03-31T08:13:24;5.60;;;2.70;;
14139;SDS011;7150;53.514;9.988;2023-03-31T08:15:50;7.87;;;3.23;;
14139;SDS011;7150;53.514;9.988;2023-03-31T08:18:16;7.80;;;3.10;;
14139;SDS011;7150;53.514;9.988;2023-03-31T08:20:41;8.03;;;3.07;;
14139;SDS011;7150;53.514;9.988;2023-03-31T08:23:07;8.07;;;2.90;;
14139;SDS011;7150;53.514;9.988;2023-03-31T08:25:35;5.40;;;2.70;;
14139;SDS011;7150;53.514;9.988;2023-03-31T08:28:01;4.33;;;2.97;;
14139;SDS011;7150;53.514;9.988;2023-03-31T08:30:26;5.83;;;2.57;;
14139;SDS011;7150;53.514;9.988;2023-03-31T08:32:52;5.87;;;2.27;;
14139;SDS011;7150;53.514;9.988;2023-03-31T08:35:17;6.33;;;2.73;;
14139;SDS011;7150;53.514;9.988;2023-03-31T08:37:43;6.50;;;3.13;;
14139;SDS011;7150;53.514;9.988;2023-03-31T08:40:13;6.63;;;2.50;;
14139;SDS011;7150;53.514;9.988;2023-03-31T08:42:45;4.93;;;2.30;;
14139;SDS011;7150;53.514;9.988;2023-03-31T08:50:43;4.20;;;2.27;;
14139;SDS011;7150;53.514;9.988;2023-03-31T08:53:25;8.03;;;2.13;;
14139;SDS011;7150;53.514;9.988;2023-03-31T08:55:57;5.03;;;2.30;;
14139;SDS011;7150;53.514;9.988;2023-03-31T08:58:38;6.73;;;2.10;;
14139;SDS011;7150;53.514;9.988;2023-03-31T09:04:08;7.17;;;2.20;;
14139;SDS011;7150;53.514;9.988;2023-03-31T09:06:40;7.27;;;2.30;;
14139;SDS011;7150;53.514;9.988;2023-03-31T09:09:34;5.97;;;2.10;;
14139;SDS011;7150;53.514;9.988;2023-03-31T09:12:24;7.80;;;2.40;;
14139;SDS011;7150;53.514;9.988;2023-03-31T09:15:28;4.60;;;2.03;;
14139;SDS011;7150;53.514;9.988;2023-03-31T09:18:17;4.17;;;1.60;;
14139;SDS011;7150;53.514;9.988;2023-03-31T09:23:33;4.33;;;1.83;;
14139;SDS011;7150;53.514;9.988;2023-03-31T09:26:03;6.30;;;2.23;;
14139;SDS011;7150;53.514;9.988;2023-03-31T09:28:36;2.90;;;2.13;;
14139;SDS011;7150;53.514;9.988;2023-03-31T09:31:04;5.07;;;1.90;;
14139;SDS011;7150;53.514;9.988;2023-03-31T09:33:36;3.77;;;1.43;;
14139;SDS011;7150;53.514;9.988;2023-03-31T09:36:07;5.77;;;2.53;;
14139;SDS011;7150;53.514;9.988;2023-03-31T09:38:42;3.87;;;1.70;;
14139;SDS011;7150;53.514;9.988;2023-03-31T09:41:09;5.40;;;2.03;;
14139;SDS011;7150;53.514;9.988;2023-03-31T09:43:36;3.67;;;2.30;;
14139;SDS011;7150;53.514;9.988;2023-03-31T09:46:05;2.73;;;1.97;;
14139;SDS011;7150;53.514;9.988;2023-03-31T09:48:48;7.33;;;2.13;;
14139;SDS011;7150;53.514;9.988;2023-03-31T09:51:19;5.13;;;2.20;;
14139;SDS011;7150;53.514;9.988;2023-03-31T09:59:32;3.10;;;2.00;;
14139;SDS011;7150;53.514;9.988;2023-03-31T10:01:59;4.57;;;2.13;;
14139;SDS011;7150;53.514;9.988;2023-03-31T10:04:28;2.97;;;1.77;;
14139;SDS011;7150;53.514;9.988;2023-03-31T10:06:56;4.13;;;2.00;;
14139;SDS011;7150;53.514;9.988;2023-03-31T10:09:28;6.67;;;2.70;;
14139;SDS011;7150;53.514;9.988;2023-03-31T10:12:02;5.87;;;2.07;;
14139;SDS011;7150;53.514;9.988;2023-03-31T10:14:44;8.20;;;2.23;;
14139;SDS011;7150;53.514;9.988;2023-03-31T10:17:27;4.17;;;2.20;;
14139;SDS011;7150;53.514;9.988;2023-03-31T10:19:53;4.83;;;2.00;;
14139;SDS011;7150;53.514;9.988;2023-03-31T10:22:28;7.40;;;2.00;;
14139;SDS011;7150;53.514;9.988;2023-03-31T10:25:03;4.80;;;2.30;;
14139;SDS011;7150;53.514;9.988;2023-03-31T10:27:34;4.07;;;2.07;;
14139;SDS011;7150;53.514;9.988;2023-03-31T10:30:04;4.73;;;2.43;;
14139;SDS011;7150;53.514;9.988;2023-03-31T10:32:39;4.53;;;2.43;;
14139;SDS011;7150;53.514;9.988;2023-03-31T10:35:11;3.77;;;2.20;;
14139;SDS011;7150;53.514;9.988;2023-03-31T10:37:57;4.93;;;1.80;;
14139;SDS011;7150;53.514;9.988;2023-03-31T10:40:26;3.60;;;2.00;;
14139;SDS011;7150;53.514;9.988;2023-03-31T10:45:48;4.13;;;1.90;;
14139;SDS011;7150;53.514;9.988;2023-03-31T10:48:25;5.03;;;2.27;;
14139;SDS011;7150;53.514;9.988;2023-03-31T10:50:59;2.87;;;2.03;;
14139;SDS011;7150;53.514;9.988;2023-03-31T10:53:38;3.77;;;1.83;;
14139;SDS011;7150;53.514;9.988;2023-03-31T10:56:09;3.67;;;2.03;;
14139;SDS011;7150;53.514;9.988;2023-03-31T11:01:30;6.27;;;2.07;;
14139;SDS011;7150;53.514;9.988;2023-03-31T11:07:15;3.83;;;1.93;;
14139;SDS011;7150;53.514;9.988;2023-03-31T11:10:16;3.57;;;1.80;;
14139;SDS011;7150;53.514;9.988;2023-03-31T11:13:33;2.40;;;1.70;;
14139;SDS011;7150;53.514;9.988;2023-03-31T11:18:30;7.53;;;2.60;;
14139;SDS011;7150;53.514;9.988;2023-03-31T11:21:16;2.63;;;1.33;;
14139;SDS011;7150;53.514;9.988;2023-03-31T11:29:32;3.00;;;1.63;;
14139;SDS011;7150;53.514;9.988;2023-03-31T11:43:16;6.03;;;2.07;;
14139;SDS011;7150;53.514;9.988;2023-03-31T11:46:06;2.53;;;1.77;;
14139;SDS011;7150;53.514;9.988;2023-03-31T11:48:45;3.63;;;1.70;;
14139;SDS011;7150;53.514;9.988;2023-03-31T11:51:19;5.43;;;1.60;;
14139;SDS011;7150;53.514;9.988;2023-03-31T11:53:49;3.13;;;1.67;;
14139;SDS011;7150;53.514;9.988;2023-03-31T11:56:19;6.07;;;1.77;;
14139;SDS011;7150;53.514;9.988;2023-03-31T11:58:53;3.73;;;1.70;;
14139;SDS011;7150;53.514;9.988;2023-03-31T12:03:55;2.23;;;1.53;;
14139;SDS011;7150;53.514;9.988;2023-03-31T12:06:28;3.93;;;2.27;;
14139;SDS011;7150;53.514;9.988;2023-03-31T12:11:56;2.70;;;1.80;;
14139;SDS011;7150;53.514;9.988;2023-03-31T12:17:12;3.33;;;1.83;;
14139;SDS011;7150;53.514;9.988;2023-03-31T12:19:44;4.23;;;1.87;;
14139;SDS011;7150;53.514;9.988;2023-03-31T12:22:26;3.13;;;1.97;;
14139;SDS011;7150;53.514;9.988;2023-03-31T12:24:55;4.70;;;1.90;;
14139;SDS011;7150;53.514;9.988;2023-03-31T12:27:35;3.43;;;1.73;;
14139;SDS011;7150;53.514;9.988;2023-03-31T12:32:39;5.03;;;2.13;;
14139;SDS011;7150;53.514;9.988;2023-03-31T12:38:04;2.50;;;1.40;;
14139;SDS011;7150;53.514;9.988;2023-03-31T12:40:55;4.07;;;1.97;;
14139;SDS011;7150;53.514;9.988;2023-03-31T12:49:21;4.73;;;2.30;;
14139;SDS011;7150;53.514;9.988;2023-03-31T12:51:57;3.10;;;2.10;;
14139;SDS011;7150;53.514;9.988;2023-03-31T12:54:46;3.93;;;1.90;;
14139;SDS011;7150;53.514;9.988;2023-03-31T12:57:33;5.47;;;2.43;;
14139;SDS011;7150;53.514;9.988;2023-03-31T13:02:48;4.07;;;2.00;;
14139;SDS011;7150;53.514;9.988;2023-03-31T13:08:05;3.37;;;2.23;;
14139;SDS011;7150;53.514;9.988;2023-03-31T13:10:32;4.10;;;2.23;;
14139;SDS011;7150;53.514;9.988;2023-03-31T13:13:16;3.47;;;2.20;;
14139;SDS011;7150;53.514;9.988;2023-03-31T13:15:55;3.67;;;2.17;;
14139;SDS011;7150;53.514;9.988;2023-03-31T13:18:21;5.00;;;2.30;;
14139;SDS011;7150;53.514;9.988;2023-03-31T13:21:00;8.47;;;2.63;;
14139;SDS011;7150;53.514;9.988;2023-03-31T13:23:33;4.40;;;2.43;;
14139;SDS011;7150;53.514;9.988;2023-03-31T13:25:59;4.40;;;2.37;;
14139;SDS011;7150;53.514;9.988;2023-03-31T13:28:32;5.23;;;2.40;;
14139;SDS011;7150;53.514;9.988;2023-03-31T13:31:04;3.23;;;2.17;;
14139;SDS011;7150;53.514;9.988;2023-03-31T13:38:58;5.23;;;2.10;;
14139;SDS011;7150;53.514;9.988;2023-03-31T13:41:41;3.30;;;2.13;;
14139;SDS011;7150;53.514;9.988;2023-03-31T13:47:33;8.77;;;2.30;;
14139;SDS011;7150;53.514;9.988;2023-03-31T14:04:18;3.27;;;1.70;;
14139;SDS011;7150;53.514;9.988;2023-03-31T14:06:55;5.40;;;1.90;;
14139;SDS011;7150;53.514;9.988;2023-03-31T14:09:31;4.03;;;2.40;;
14139;SDS011;7150;53.514;9.988;2023-03-31T14:11:59;3.13;;;1.80;;
14139;SDS011;7150;53.514;9.988;2023-03-31T14:14:26;3.10;;;2.03;;
14139;SDS011;7150;53.514;9.988;2023-03-31T14:16:54;3.23;;;2.00;;
14139;SDS011;7150;53.514;9.988;2023-03-31T14:19:41;2.37;;;2.00;;
14139;SDS011;7150;53.514;9.988;2023-03-31T14:31:00;3.10;;;1.70;;
14139;SDS011;7150;53.514;9.988;2023-03-31T14:39:50;2.47;;;1.50;;
14139;SDS011;7150;53.514;9.988;2023-03-31T14:42:22;4.17;;;1.83;;
14139;SDS011;7150;53.514;9.988;2023-03-31T14:45:01;2.10;;;1.57;;
14139;SDS011;7150;53.514;9.988;2023-03-31T14:47:28;2.23;;;1.40;;
14139;SDS011;7150;53.514;9.988;2023-03-31T14:50:28;4.23;;;1.93;;
14139;SDS011;7150;53.514;9.988;2023-03-31T14:52:49;3.10;;;1.60;;
14139;SDS011;7150;53.514;9.988;2023-03-31T14:55:21;2.00;;;1.27;;
14139;SDS011;7150;53.514;9.988;2023-03-31T14:57:50;2.97;;;1.50;;
14139;SDS011;7150;53.514;9.988;2023-03-31T15:00:23;5.10;;;1.70;;
14139;SDS011;7150;53.514;9.988;2023-03-31T15:02:50;5.40;;;1.60;;
14139;SDS011;7150;53.514;9.988;2023-03-31T15:05:21;1.93;;;1.33;;
14139;SDS011;7150;53.514;9.988;2023-03-31T15:08:04;2.53;;;1.30;;
14139;SDS011;7150;53.514;9.988;2023-03-31T15:10:36;3.63;;;1.60;;
14139;SDS011;7150;53.514;9.988;2023-03-31T15:13:16;3.50;;;1.17;;
14139;SDS011;7150;53.514;9.988;2023-03-31T15:18:46;2.30;;;1.67;;
14139;SDS011;7150;53.514;9.988;2023-03-31T15:21:21;3.43;;;1.47;;
14139;SDS011;7150;53.514;9.988;2023-03-31T15:23:52;2.07;;;1.13;;
14139;SDS011;7150;53.514;9.988;2023-03-31T15:26:20;1.90;;;1.50;;
14139;SDS011;7150;53.514;9.988;2023-03-31T15:28:51;1.70;;;1.10;;
14139;SDS011;7150;53.514;9.988;2023-03-31T15:31:37;1.30;;;1.20;;
14139;SDS011;7150;53.514;9.988;2023-03-31T15:36:55;2.50;;;1.47;;
14139;SDS011;7150;53.514;9.988;2023-03-31T15:39:22;2.20;;;1.53;;
14139;SDS011;7150;53.514;9.988;2023-03-31T15:41:48;2.20;;;1.50;;
14139;SDS011;7150;53.514;9.988;2023-03-31T15:47:14;2.23;;;1.10;;
14139;SDS011;7150;53.514;9.988;2023-03-31T15:49:46;2.27;;;1.77;;
14139;SDS011;7150;53.514;9.988;2023-03-31T15:52:28;1.50;;;1.20;;
14139;SDS011;7150;53.514;9.988;2023-03-31T15:54:57;2.17;;;1.37;;
14139;SDS011;7150;53.514;9.988;2023-03-31T15:57:29;2.03;;;1.20;;
14139;SDS011;7150;53.514;9.988;2023-03-31T15:59:56;1.97;;;1.47;;
14139;SDS011;7150;53.514;9.988;2023-03-31T16:02:24;2.40;;;1.20;;
14139;SDS011;7150;53.514;9.988;2023-03-31T16:05:20;2.60;;;1.30;;
14139;SDS011;7150;53.514;9.988;2023-03-31T16:08:00;1.97;;;1.10;;
14139;SDS011;7150;53.514;9.988;2023-03-31T16:10:27;1.60;;;1.33;;
14139;SDS011;7150;53.514;9.988;2023-03-31T16:12:57;2.20;;;1.37;;
14139;SDS011;7150;53.514;9.988;2023-03-31T16:15:45;2.57;;;1.23;;
14139;SDS011;7150;53.514;9.988;2023-03-31T16:18:14;1.57;;;1.23;;
14139;SDS011;7150;53.514;9.988;2023-03-31T16:20:52;2.07;;;1.60;;
14139;SDS011;7150;53.514;9.988;2023-03-31T16:23:22;2.13;;;1.33;;
14139;SDS011;7150;53.514;9.988;2023-03-31T16:25:51;1.60;;;1.20;;
14139;SDS011;7150;53.514;9.988;2023-03-31T16:28:18;1.80;;;1.10;;
14139;SDS011;7150;53.514;9.988;2023-03-31T16:30:46;1.60;;;1.30;;
14139;SDS011;7150;53.514;9.988;2023-03-31T16:33:13;1.60;;;1.13;;
14139;SDS011;7150;53.514;9.988;2023-03-31T16:35:48;1.40;;;1.10;;
14139;SDS011;7150;53.514;9.988;2023-03-31T16:38:17;1.57;;;1.20;;
14139;SDS011;7150;53.514;9.988;2023-03-31T16:40:45;1.33;;;1.20;;
14139;SDS011;7150;53.514;9.988;2023-03-31T16:43:13;2.07;;;1.20;;
14139;SDS011;7150;53.514;9.988;2023-03-31T16:45:42;2.20;;;1.30;;
14139;SDS011;7150;53.514;9.988;2023-03-31T16:48:15;1.47;;;0.97;;
14139;SDS011;7150;53.514;9.988;2023-03-31T16:50:46;3.67;;;1.37;;
14139;SDS011;7150;53.514;9.988;2023-03-31T16:53:15;2.20;;;1.30;;
14139;SDS011;7150;53.514;9.988;2023-03-31T16:55:42;2.13;;;1.30;;
14139;SDS011;7150;53.514;9.988;2023-03-31T16:58:08;2.10;;;1.37;;
14139;SDS011;7150;53.514;9.988;2023-03-31T17:00:35;2.63;;;1.47;;
14139;SDS011;7150;53.514;9.988;2023-03-31T17:03:01;2.90;;;1.30;;
14139;SDS011;7150;53.514;9.988;2023-03-31T17:05:28;2.93;;;1.37;;
14139;SDS011;7150;53.514;9.988;2023-03-31T17:07:56;1.60;;;1.30;;
14139;SDS011;7150;53.514;9.988;2023-03-31T17:10:22;2.00;;;1.30;;
14139;SDS011;7150;53.514;9.988;2023-03-31T17:12:48;2.80;;;1.50;;
14139;SDS011;7150;53.514;9.988;2023-03-31T17:15:14;1.10;;;1.00;;
14139;SDS011;7150;53.514;9.988;2023-03-31T17:17:40;1.23;;;1.10;;
14139;SDS011;7150;53.514;9.988;2023-03-31T17:20:06;1.87;;;1.20;;
14139;SDS011;7150;53.514;9.988;2023-03-31T17:22:33;2.93;;;1.30;;
14139;SDS011;7150;53.514;9.988;2023-03-31T17:24:59;4.90;;;2.40;;
14139;SDS011;7150;53.514;9.988;2023-03-31T17:27:25;6.33;;;2.80;;
14139;SDS011;7150;53.514;9.988;2023-03-31T17:29:51;7.37;;;3.83;;
14139;SDS011;7150;53.514;9.988;2023-03-31T17:32:17;8.37;;;3.87;;
14139;SDS011;7150;53.514;9.988;2023-03-31T17:34:43;10.03;;;5.10;;
14139;SDS011;7150;53.514;9.988;2023-03-31T17:37:08;8.07;;;4.33;;
14139;SDS011;7150;53.514;9.988;2023-03-31T17:39:34;10.30;;;4.60;;
14139;SDS011;7150;53.514;9.988;2023-03-31T17:42:00;6.43;;;3.63;;
14139;SDS011;7150;53.514;9.988;2023-03-31T17:44:26;8.50;;;4.07;;
14139;SDS011;7150;53.514;9.988;2023-03-31T17:46:52;8.83;;;3.63;;
14139;SDS011;7150;53.514;9.988;2023-03-31T17:49:17;9.50;;;4.57;;